Time;durP1;ratioP1;P1;durP2;ratioP2;P2;SDS_P1;SDS_P2;PMS_P1;PMS_P2;Temp;Humidity;BMP_temperature;BMP_pressure;BME280_temperature;BME280_humidity;BME280_pressure;Samples;Min_cycle;Max_cycle;Signal;HPM_P1;HPM_P2
2022/11/04 00:00:00;;;;;;;1.2;0.3;;;;;;;;;;;;;-78
2022/11/04 00:01:52;;;;;;;;;;;;;;;10.76;82.4248;100018.5;;;;-78
2022/11/04 00:06:52;;;;;;;;;;;;;;;10.77;82.94824;100034.7;;;;-79
2022/11/04 00:30:01;;;;;;;2.2;0.4;;;;;;;;;;;;;-77
2022/11/04 00:36:57;;;;;;;;;;;;;;;10.7;82.73633;100070.9;;;;-77
2022/11/04 00:41:52;;;;;;;;;;;;;;;10.69;82.66699;100075.3;;;;-78
2022/11/04 00:46:52;;;;;;;;;;;;;;;10.69;82.75488;100074.5;;;;-79
2022/11/04 00:51:52;;;;;;;;;;;;;;;10.67;82.43164;100085.6;;;;-78
2022/11/04 00:56:52;;;;;;;;;;;;;;;10.65;82.75977;100092.9;;;;-79
2022/11/04 01:00:02;;;;;;;1.2;0.5;;;;;;;;;;;;;-77
2022/11/04 01:01:52;;;;;;;;;;;;;;;10.65;82.66016;100100.8;;;;-77
2022/11/04 01:06:55;;;;;;;;;;;;;;;10.62;83.66992;100100.5;;;;-77
2022/11/04 01:11:52;;;;;;;;;;;;;;;10.62;83.79395;100117;;;;-79
2022/11/04 01:16:52;;;;;;;;;;;;;;;10.61;84.13281;100131.8;;;;-79
2022/11/04 01:21:54;;;;;;;;;;;;;;;10.61;83.62402;100142.6;;;;-78
2022/11/04 01:26:52;;;;;;;;;;;;;;;10.63;83.86133;100148.8;;;;-78
2022/11/04 01:30:03;;;;;;;2.5;0.6;;;;;;;;;;;;;-77
2022/11/04 01:31:52;;;;;;;;;;;;;;;10.62;83.27246;100153.3;;;;-78
2022/11/04 01:36:52;;;;;;;;;;;;;;;10.59;83.57715;100157.3;;;;-77
2022/11/04 01:41:52;;;;;;;;;;;;;;;10.52;84.08398;100161;;;;-77
2022/11/04 01:46:53;;;;;;;;;;;;;;;10.48;84.50586;100156.3;;;;-78
2022/11/04 01:51:53;;;;;;;;;;;;;;;10.45;84.67578;100175.2;;;;-78
2022/11/04 01:56:52;;;;;;;;;;;;;;;10.4;84.98926;100182.2;;;;-77
2022/11/04 02:00:06;;;;;;;3.1;0.6;;;;;;;;;;;;;-78
2022/11/04 02:01:52;;;;;;;;;;;;;;;10.4;85.26367;100197;;;;-76
2022/11/04 02:06:53;;;;;;;;;;;;;;;10.33;85.08594;100209;;;;-79
2022/11/04 02:16:52;;;;;;;;;;;;;;;10.19;85.20117;100238.6;;;;-79
2022/11/04 02:22:03;;;;;;;;;;;;;;;10.08;84.98047;100245.2;;;;-80
2022/11/04 02:27:04;;;;;;;;;;;;;;;9.98;85.31445;100252.3;;;;-81
2022/11/04 02:30:10;;;;;;;1.3;0.2;;;;;;;;;;;;;-80
2022/11/04 02:31:55;;;;;;;;;;;;;;;9.93;85.08496;100267.8;;;;-81
2022/11/04 02:36:58;;;;;;;;;;;;;;;9.89;84.77832;100270.7;;;;-79
2022/11/04 02:41:56;;;;;;;;;;;;;;;9.81;84.86133;100261.8;;;;-80
2022/11/04 02:46:56;;;;;;;;;;;;;;;9.73;84.79199;100242.9;;;;-81
2022/11/04 02:51:56;;;;;;;;;;;;;;;9.73;84.45996;100257.2;;;;-79
2022/11/04 02:56:57;;;;;;;;;;;;;;;9.66;84.51367;100264.8;;;;-80
2022/11/04 03:00:08;;;;;;;0.7;0.2;;;;;;;;;;;;;-79
2022/11/04 03:01:54;;;;;;;;;;;;;;;9.63;84.48633;100265;;;;-79
2022/11/04 03:06:53;;;;;;;;;;;;;;;9.62;84.25293;100273.1;;;;-79
2022/11/04 03:11:55;;;;;;;;;;;;;;;9.59;84.11328;100282.5;;;;-80
2022/11/04 03:16:55;;;;;;;;;;;;;;;9.54;84.2373;100282.4;;;;-80
2022/11/04 03:21:56;;;;;;;;;;;;;;;9.55;84.07129;100286.6;;;;-74
2022/11/04 03:26:57;;;;;;;;;;;;;;;9.52;83.72656;100294.3;;;;-75
2022/11/04 03:30:11;;;;;;;1;0.2;;;;;;;;;;;;;-74
2022/11/04 03:31:57;;;;;;;;;;;;;;;9.5;83.82227;100304.4;;;;-75
2022/11/04 03:36:52;;;;;;;;;;;;;;;9.54;83.60645;100308.8;;;;-79
2022/11/04 03:41:54;;;;;;;;;;;;;;;9.53;83.87109;100318.3;;;;-79
2022/11/04 03:46:53;;;;;;;;;;;;;;;9.52;83.97852;100319.9;;;;-80
2022/11/04 03:51:52;;;;;;;;;;;;;;;9.49;83.98535;100320.3;;;;-79
2022/11/04 03:57:03;;;;;;;;;;;;;;;9.5;84.34961;100330.9;;;;-74
2022/11/04 04:00:11;;;;;;;1.8;0.5;;;;;;;;;;;;;-74
2022/11/04 04:01:54;;;;;;;;;;;;;;;9.5;84.72559;100348.4;;;;-72
2022/11/04 04:06:53;;;;;;;;;;;;;;;9.48;84.66602;100358.5;;;;-74
2022/11/04 04:11:55;;;;;;;;;;;;;;;9.46;85.43359;100361.1;;;;-74
2022/11/04 04:16:55;;;;;;;;;;;;;;;9.48;85.15039;100368.9;;;;-74
2022/11/04 04:21:54;;;;;;;;;;;;;;;9.48;85.2959;100370.7;;;;-81
2022/11/04 04:30:10;;;;;;;1.6;0.7;;;;;;;;;;;;;-79
2022/11/04 04:31:56;;;;;;;;;;;;;;;9.55;84.73535;100366.6;;;;-78
2022/11/04 04:36:56;;;;;;;;;;;;;;;9.53;84.91895;100368.6;;;;-78
2022/11/04 04:46:53;;;;;;;;;;;;;;;9.52;84.47461;100375.8;;;;-79
2022/11/04 04:51:52;;;;;;;;;;;;;;;9.45;84.66211;100379.4;;;;-79
2022/11/04 04:56:52;;;;;;;;;;;;;;;9.44;84.30371;100382.3;;;;-80
2022/11/04 05:00:12;;;;;;;2.1;0.6;;;;;;;;;;;;;-79
2022/11/04 05:01:52;;;;;;;;;;;;;;;9.44;84.37207;100392.7;;;;-79
2022/11/04 05:06:52;;;;;;;;;;;;;;;9.38;84.42773;100386.7;;;;-78
2022/11/04 05:11:52;;;;;;;;;;;;;;;9.3;84.32324;100380.4;;;;-77
2022/11/04 05:16:52;;;;;;;;;;;;;;;9.28;84.39551;100386.8;;;;-78
2022/11/04 05:21:52;;;;;;;;;;;;;;;9.25;84.5;100397.5;;;;-78
2022/11/04 05:26:52;;;;;;;;;;;;;;;9.23;84.48535;100406.4;;;;-80
2022/11/04 05:30:12;;;;;;;1.8;0.5;;;;;;;;;;;;;-79
2022/11/04 05:31:56;;;;;;;;;;;;;;;9.19;84.58691;100410.8;;;;-78
2022/11/04 05:36:52;;;;;;;;;;;;;;;9.14;84.14746;100420.6;;;;-79
2022/11/04 05:41:52;;;;;;;;;;;;;;;9.1;84.00781;100424.7;;;;-79
2022/11/04 05:46:52;;;;;;;;;;;;;;;9.09;84.20605;100419.8;;;;-79
2022/11/04 05:51:52;;;;;;;;;;;;;;;9.07;83.76074;100430.4;;;;-80
2022/11/04 05:56:52;;;;;;;;;;;;;;;9.06;83.91309;100431.8;;;;-78
2022/11/04 06:00:13;;;;;;;2.5;0.6;;;;;;;;;;;;;-78
2022/11/04 06:01:52;;;;;;;;;;;;;;;9.04;84.28223;100438.9;;;;-79
2022/11/04 06:06:52;;;;;;;;;;;;;;;9.02;84.20313;100441.8;;;;-79
2022/11/04 06:11:52;;;;;;;;;;;;;;;8.99;83.80078;100448.5;;;;-78
2022/11/04 06:16:52;;;;;;;;;;;;;;;8.96;83.69531;100461.8;;;;-79
2022/11/04 06:21:52;;;;;;;;;;;;;;;8.94;84.29688;100460.1;;;;-80
2022/11/04 06:26:52;;;;;;;;;;;;;;;8.91;83.87207;100460.9;;;;-79
2022/11/04 06:30:13;;;;;;;1;0.5;;;;;;;;;;;;;-79
2022/11/04 06:31:52;;;;;;;;;;;;;;;8.95;83.75977;100495;;;;-78
2022/11/04 06:36:52;;;;;;;;;;;;;;;8.96;83.79395;100489.5;;;;-78
2022/11/04 06:41:53;;;;;;;;;;;;;;;8.99;83.94238;100484.3;;;;-79
2022/11/04 06:46:52;;;;;;;;;;;;;;;9.01;84.43262;100489.5;;;;-79
2022/11/04 06:51:53;;;;;;;;;;;;;;;9.05;84.59375;100497.5;;;;-80
2022/11/04 06:56:52;;;;;;;;;;;;;;;9.11;84.35254;100510.3;;;;-79
2022/11/04 07:00:14;;;;;;;6.2;2.5;;;;;;;;;;;;;-79
2022/11/04 07:01:52;;;;;;;;;;;;;;;9.13;84.4668;100528;;;;-79
2022/11/04 07:06:55;;;;;;;;;;;;;;;9.18;84.06934;100546.5;;;;-79
2022/11/04 07:11:52;;;;;;;;;;;;;;;9.18;83.86035;100548.8;;;;-80
2022/11/04 07:16:54;;;;;;;;;;;;;;;9.22;84.05469;100559.1;;;;-80
2022/11/04 07:21:52;;;;;;;;;;;;;;;9.23;83.68164;100564.3;;;;-81
2022/11/04 07:26:52;;;;;;;;;;;;;;;9.27;83.49902;100568;;;;-76
2022/11/04 07:30:14;;;;;;;5.6;3.2;;;;;;;;;;;;;-76
2022/11/04 07:31:53;;;;;;;;;;;;;;;9.29;83.67188;100576.4;;;;-76
2022/11/04 07:36:52;;;;;;;;;;;;;;;9.32;83.83105;100585.3;;;;-75
2022/11/04 07:41:52;;;;;;;;;;;;;;;9.34;84.27344;100591.5;;;;-79
2022/11/04 07:46:52;;;;;;;;;;;;;;;9.38;84.31738;100591.3;;;;-80
2022/11/04 07:51:52;;;;;;;;;;;;;;;9.4;84.93652;100587.6;;;;-79
2022/11/04 07:56:52;;;;;;;;;;;;;;;9.44;84.28223;100587.5;;;;-80
2022/11/04 08:00:15;;;;;;;7.4;3.7;;;;;;;;;;;;;-81
2022/11/04 08:01:52;;;;;;;;;;;;;;;9.46;84.46387;100595;;;;-79
2022/11/04 08:06:52;;;;;;;;;;;;;;;9.46;84.28711;100606.6;;;;-79
2022/11/04 08:11:52;;;;;;;;;;;;;;;9.51;84.39551;100617.4;;;;-79
2022/11/04 08:16:53;;;;;;;;;;;;;;;9.54;84.2373;100623;;;;-80
2022/11/04 08:21:52;;;;;;;;;;;;;;;9.6;84.30469;100622.6;;;;-80
2022/11/04 08:26:52;;;;;;;;;;;;;;;9.61;84.26074;100626.8;;;;-79
2022/11/04 08:30:15;;;;;;;10.9;4.7;;;;;;;;;;;;;-78
2022/11/04 08:31:54;;;;;;;;;;;;;;;9.64;84.23242;100628.9;;;;-79
2022/11/04 08:36:54;;;;;;;;;;;;;;;9.7;84.00391;100633.2;;;;-79
2022/11/04 08:41:52;;;;;;;;;;;;;;;9.92;83.71484;100640.4;;;;-79
2022/11/04 08:46:52;;;;;;;;;;;;;;;10.32;82.58594;100644.1;;;;-78
2022/11/04 08:51:55;;;;;;;;;;;;;;;10.7;82.02734;100647.3;;;;-79
2022/11/04 08:56:52;;;;;;;;;;;;;;;10.87;81.9043;100651.6;;;;-80
2022/11/04 09:00:17;;;;;;;10.3;4.9;;;;;;;;;;;;;-78
2022/11/04 09:01:55;;;;;;;;;;;;;;;10.89;81.7627;100653.3;;;;-78
2022/11/04 09:06:55;;;;;;;;;;;;;;;10.94;81.69629;100658.3;;;;-78
2022/11/04 09:11:52;;;;;;;;;;;;;;;11.03;81.50195;100667.1;;;;-78
2022/11/04 09:16:52;;;;;;;;;;;;;;;11.11;81.72754;100670.8;;;;-77
2022/11/04 09:21:52;;;;;;;;;;;;;;;11.2;81.26953;100676.7;;;;-78
2022/11/04 09:26:52;;;;;;;;;;;;;;;11.24;81.50879;100676.8;;;;-73
2022/11/04 09:30:17;;;;;;;8.9;5.1;;;;;;;;;;;;;-74
2022/11/04 09:31:52;;;;;;;;;;;;;;;11.24;81.87305;100687.3;;;;-74
2022/11/04 09:36:52;;;;;;;;;;;;;;;11.23;81.21777;100694.5;;;;-73
2022/11/04 09:41:57;;;;;;;;;;;;;;;11.21;81.3584;100692.8;;;;-73
2022/11/04 09:46:54;;;;;;;;;;;;;;;11.18;81.45313;100706.9;;;;-72
2022/11/04 09:51:53;;;;;;;;;;;;;;;11.26;81.81152;100715;;;;-78
2022/11/04 09:56:53;;;;;;;;;;;;;;;11.47;81.58496;100723.5;;;;-77
2022/11/04 10:00:19;;;;;;;9.8;5.4;;;;;;;;;;;;;-78
2022/11/04 10:01:59;;;;;;;;;;;;;;;11.6;80.93164;100739.5;;;;-78
2022/11/04 10:06:59;;;;;;;;;;;;;;;11.67;81.18945;100744.4;;;;-78
2022/11/04 10:11:58;;;;;;;;;;;;;;;11.71;80.6748;100757.3;;;;-78
2022/11/04 10:17:01;;;;;;;;;;;;;;;11.72;80.43457;100771.1;;;;-78
2022/11/04 10:22:06;;;;;;;;;;;;;;;11.71;80.29883;100777.5;;;;-77
2022/11/04 10:26:56;;;;;;;;;;;;;;;11.76;82.43555;100783.8;;;;-77
2022/11/04 10:30:21;;;;;;;11.7;5.5;;;;;;;;;;;;;-77
2022/11/04 10:31:55;;;;;;;;;;;;;;;11.91;82.41992;100784.7;;;;-77
2022/11/04 10:36:53;;;;;;;;;;;;;;;12.02;82.80859;100784.5;;;;-77
2022/11/04 10:41:52;;;;;;;;;;;;;;;12.18;81.98145;100793.6;;;;-73
2022/11/04 10:46:58;;;;;;;;;;;;;;;12.27;82.55566;100805.7;;;;-72
2022/11/04 10:51:52;;;;;;;;;;;;;;;12.33;83.06543;100815.2;;;;-72
2022/11/04 10:56:52;;;;;;;;;;;;;;;12.4;82.1123;100821.4;;;;-72
2022/11/04 11:00:30;;;;;;;11;4.9;;;;;;;;;;;;;-72
2022/11/04 11:01:55;;;;;;;;;;;;;;;12.45;81.87695;100825;;;;-72
2022/11/04 11:06:53;;;;;;;;;;;;;;;12.5;81.43164;100817.8;;;;-72
2022/11/04 11:11:53;;;;;;;;;;;;;;;12.47;81.2041;100818.4;;;;-72
2022/11/04 11:16:52;;;;;;;;;;;;;;;12.38;82.41992;100820.4;;;;-72
2022/11/04 11:21:52;;;;;;;;;;;;;;;12.32;81.97656;100824.3;;;;-72
2022/11/04 11:26:54;;;;;;;;;;;;;;;12.29;81.83887;100826.9;;;;-71
2022/11/04 11:30:28;;;;;;;8.4;3.1;;;;;;;;;;;;;-76
2022/11/04 11:31:53;;;;;;;;;;;;;;;12.3;81.42773;100837.2;;;;-76
2022/11/04 11:36:52;;;;;;;;;;;;;;;12.32;81.45313;100846.1;;;;-76
2022/11/04 11:41:57;;;;;;;;;;;;;;;12.33;81.32129;100857.2;;;;-71
2022/11/04 11:46:57;;;;;;;;;;;;;;;12.33;81.28809;100870.5;;;;-71
2022/11/04 11:51:52;;;;;;;;;;;;;;;12.35;80.8584;100889.6;;;;-71
2022/11/04 11:56:53;;;;;;;;;;;;;;;12.29;80.52832;100897.4;;;;-72
2022/11/04 12:00:31;;;;;;;5;2.1;;;;;;;;;;;;;-72
2022/11/04 12:01:54;;;;;;;;;;;;;;;12.21;80.54492;100890.6;;;;-72
2022/11/04 12:06:57;;;;;;;;;;;;;;;12.13;80.95215;100890.5;;;;-73
2022/11/04 12:12:04;;;;;;;;;;;;;;;12.1;81.52344;100886;;;;-72
2022/11/04 12:16:55;;;;;;;;;;;;;;;12.09;81.65527;100892.3;;;;-77
2022/11/04 12:21:59;;;;;;;;;;;;;;;12.11;82.03809;100901.1;;;;-77
2022/11/04 12:26:56;;;;;;;;;;;;;;;12.1;83;100909.3;;;;-76
2022/11/04 12:30:24;;;;;;;4.4;1.3;;;;;;;;;;;;;-77
2022/11/04 12:31:54;;;;;;;;;;;;;;;12.12;82.95898;100913.3;;;;-77
2022/11/04 12:37:03;;;;;;;;;;;;;;;12.18;81.99219;100918.7;;;;-76
2022/11/04 12:41:57;;;;;;;;;;;;;;;12.17;81.52637;100921;;;;-75
2022/11/04 12:46:57;;;;;;;;;;;;;;;12.16;81.34668;100926.5;;;;-77
2022/11/04 12:51:57;;;;;;;;;;;;;;;12.19;81.1875;100930.8;;;;-77
2022/11/04 12:56:57;;;;;;;;;;;;;;;12.2;81.17578;100935.6;;;;-76
2022/11/04 13:00:27;;;;;;;3.4;1.5;;;;;;;;;;;;;-75
2022/11/04 13:01:55;;;;;;;;;;;;;;;12.2;81.55371;100944.7;;;;-75
2022/11/04 13:06:54;;;;;;;;;;;;;;;12.2;81.68652;100947.9;;;;-76
2022/11/04 13:11:54;;;;;;;;;;;;;;;12.28;81.25781;100956.7;;;;-75
2022/11/04 13:16:54;;;;;;;;;;;;;;;12.23;81.30371;100964.7;;;;-72
2022/11/04 13:21:52;;;;;;;;;;;;;;;12.15;81.42285;100968.7;;;;-72
2022/11/04 13:26:52;;;;;;;;;;;;;;;12.13;81.30664;100976.5;;;;-75
2022/11/04 13:30:29;;;;;;;3;1.1;;;;;;;;;;;;;-76
2022/11/04 13:31:57;;;;;;;;;;;;;;;12.07;81.91699;100982.7;;;;-76
2022/11/04 13:36:55;;;;;;;;;;;;;;;11.99;82.08105;100983.6;;;;-76
2022/11/04 13:42:11;;;;;;;;;;;;;;;11.94;82.21484;100992.5;;;;-76
2022/11/04 13:46:55;;;;;;;;;;;;;;;11.9;82.77344;100999.5;;;;-77
2022/11/04 13:52:02;;;;;;;;;;;;;;;11.87;82.69043;101011.1;;;;-75
2022/11/04 13:56:52;;;;;;;;;;;;;;;11.82;82.64844;101007.6;;;;-75
2022/11/04 14:00:28;;;;;;;2.7;0.7;;;;;;;;;;;;;-76
2022/11/04 14:01:52;;;;;;;;;;;;;;;11.79;83.13965;101007.4;;;;-75
2022/11/04 14:06:57;;;;;;;;;;;;;;;11.74;82.95313;101011.6;;;;-75
2022/11/04 14:12:03;;;;;;;;;;;;;;;11.71;83.00488;101014.7;;;;-76
2022/11/04 14:16:52;;;;;;;;;;;;;;;11.69;82.93164;101026.8;;;;-71
2022/11/04 14:22:02;;;;;;;;;;;;;;;11.64;83.30176;101038;;;;-71
2022/11/04 14:26:52;;;;;;;;;;;;;;;11.62;83.24316;101044;;;;-76
2022/11/04 14:30:41;;;;;;;3.9;1.1;;;;;;;;;;;;;-76
2022/11/04 14:31:53;;;;;;;;;;;;;;;11.6;83.06055;101047.6;;;;-75
2022/11/04 14:36:58;;;;;;;;;;;;;;;11.58;83.02344;101053;;;;-75
2022/11/04 14:42:05;;;;;;;;;;;;;;;11.56;82.94238;101057.5;;;;-75
2022/11/04 14:46:54;;;;;;;;;;;;;;;11.56;82.85352;101060;;;;-76
2022/11/04 14:51:52;;;;;;;;;;;;;;;11.56;82.57715;101063.4;;;;-75
2022/11/04 14:56:52;;;;;;;;;;;;;;;11.55;82.53125;101070.8;;;;-76
2022/11/04 15:00:40;;;;;;;3.1;1;;;;;;;;;;;;;-76
2022/11/04 15:01:52;;;;;;;;;;;;;;;11.52;82.45703;101081;;;;-75
2022/11/04 15:06:56;;;;;;;;;;;;;;;11.46;82.76855;101081;;;;-74
2022/11/04 15:16:54;;;;;;;;;;;;;;;11.31;82.83887;101091.9;;;;-71
2022/11/04 15:21:52;;;;;;;;;;;;;;;11.24;82.95996;101096.8;;;;-72
2022/11/04 15:26:56;;;;;;;;;;;;;;;11.15;82.78809;101108.3;;;;-76
2022/11/04 15:30:30;;;;;;;3.6;0.9;;;;;;;;;;;;;-76
2022/11/04 15:31:58;;;;;;;;;;;;;;;11.07;82.80762;101114;;;;-76
2022/11/04 15:36:53;;;;;;;;;;;;;;;10.99;82.46875;101117.6;;;;-75
2022/11/04 15:46:56;;;;;;;;;;;;;;;10.77;82.20703;101126.7;;;;-76
2022/11/04 15:51:52;;;;;;;;;;;;;;;10.65;82.17383;101123.1;;;;-75
2022/11/04 15:56:54;;;;;;;;;;;;;;;10.53;82.18457;101129.4;;;;-75
2022/11/04 16:00:32;;;;;;;3.2;0.7;;;;;;;;;;;;;-76
2022/11/04 16:01:53;;;;;;;;;;;;;;;10.45;82.50098;101137.5;;;;-75
2022/11/04 16:07:02;;;;;;;;;;;;;;;10.37;82.20898;101149.5;;;;-76
2022/11/04 16:12:03;;;;;;;;;;;;;;;10.28;82.42383;101150.9;;;;-72
2022/11/04 16:16:53;;;;;;;;;;;;;;;10.19;82.47461;101158.7;;;;-70
2022/11/04 16:22:00;;;;;;;;;;;;;;;10.12;82.7793;101163.4;;;;-71
2022/11/04 16:26:52;;;;;;;;;;;;;;;10.02;82.48633;101171.9;;;;-72
2022/11/04 16:30:33;;;;;;;3.8;1;;;;;;;;;;;;;-73
2022/11/04 16:32:01;;;;;;;;;;;;;;;9.96;82.61816;101185;;;;-72
2022/11/04 16:36:54;;;;;;;;;;;;;;;9.86;82.58789;101192.3;;;;-76
2022/11/04 16:41:51;;;;;;;;;;;;;;;9.76;82.93262;101203.4;;;;-76
2022/11/04 16:46:52;;;;;;;;;;;;;;;9.69;83.04102;101209.1;;;;-77
2022/11/04 16:51:53;;;;;;;;;;;;;;;9.64;82.84277;101212.1;;;;-76
2022/11/04 16:56:53;;;;;;;;;;;;;;;9.6;82.65918;101218.9;;;;-76
2022/11/04 17:00:34;;;;;;;2.3;0.8;;;;;;;;;;;;;-77
2022/11/04 17:01:52;;;;;;;;;;;;;;;9.51;82.77441;101223;;;;-76
2022/11/04 17:06:51;;;;;;;;;;;;;;;9.45;82.79688;101226.5;;;;-77
2022/11/04 17:11:52;;;;;;;;;;;;;;;9.37;82.80176;101239.9;;;;-76
2022/11/04 17:16:52;;;;;;;;;;;;;;;9.3;83.07617;101244;;;;-76
2022/11/04 17:21:55;;;;;;;;;;;;;;;9.19;83.00098;101240.5;;;;-76
2022/11/04 17:26:52;;;;;;;;;;;;;;;9.1;83.12695;101238.9;;;;-77
2022/11/04 17:30:33;;;;;;;2.1;1.1;;;;;;;;;;;;;-76
2022/11/04 17:31:52;;;;;;;;;;;;;;;9.02;82.97852;101234.4;;;;-76
2022/11/04 17:36:52;;;;;;;;;;;;;;;8.92;83.11523;101246.4;;;;-76
2022/11/04 17:46:51;;;;;;;;;;;;;;;8.75;83.56836;101256.8;;;;-77
2022/11/04 17:51:53;;;;;;;;;;;;;;;8.66;83.14258;101259.1;;;;-76
2022/11/04 17:56:52;;;;;;;;;;;;;;;8.56;83.21094;101272;;;;-77
2022/11/04 18:00:34;;;;;;;1.8;0.8;;;;;;;;;;;;;-77
2022/11/04 18:01:54;;;;;;;;;;;;;;;8.47;83.27246;101289.1;;;;-76
2022/11/04 18:06:52;;;;;;;;;;;;;;;8.39;83.44238;101294.9;;;;-77
2022/11/04 18:16:52;;;;;;;;;;;;;;;8.17;83.65332;101309.1;;;;-77
2022/11/04 18:21:51;;;;;;;;;;;;;;;8.1;83.43262;101315.3;;;;-76
2022/11/04 18:26:52;;;;;;;;;;;;;;;8;83.66406;101323.2;;;;-76
2022/11/04 18:30:34;;;;;;;2.8;1;;;;;;;;;;;;;-77
2022/11/04 18:31:52;;;;;;;;;;;;;;;7.91;83.8125;101324.9;;;;-76
2022/11/04 18:36:52;;;;;;;;;;;;;;;7.82;83.37793;101326;;;;-77
2022/11/04 18:41:52;;;;;;;;;;;;;;;7.78;83.49219;101332.6;;;;-77
2022/11/04 18:46:52;;;;;;;;;;;;;;;7.68;83.60254;101339.1;;;;-76
2022/11/04 18:51:51;;;;;;;;;;;;;;;7.63;83.87891;101340.4;;;;-78
2022/11/04 18:56:51;;;;;;;;;;;;;;;7.55;83.68945;101340.2;;;;-77
2022/11/04 19:00:36;;;;;;;2.6;1;;;;;;;;;;;;;-77
2022/11/04 19:01:52;;;;;;;;;;;;;;;7.51;83.4834;101350.5;;;;-77
2022/11/04 19:06:54;;;;;;;;;;;;;;;7.47;83.61719;101358;;;;-76
2022/11/04 19:13:16;;;;;;;;;;;;;;;7.39;83.80078;101356;;;;-76
2022/11/04 19:16:53;;;;;;;;;;;;;;;7.32;83.875;101356.7;;;;-76
2022/11/04 19:21:51;;;;;;;;;;;;;;;7.31;83.53418;101364.6;;;;-77
2022/11/04 19:26:51;;;;;;;;;;;;;;;7.23;83.87891;101366.2;;;;-76
2022/11/04 19:30:35;;;;;;;2.9;1.2;;;;;;;;;;;;;-77
2022/11/04 19:31:51;;;;;;;;;;;;;;;7.16;83.98535;101362.2;;;;-78
2022/11/04 19:36:51;;;;;;;;;;;;;;;7.14;83.65332;101365.4;;;;-77
2022/11/04 19:46:52;;;;;;;;;;;;;;;7.11;84.11914;101377.6;;;;-77
2022/11/04 19:51:52;;;;;;;;;;;;;;;7.2;84.14746;101373.5;;;;-76
2022/11/04 19:56:51;;;;;;;;;;;;;;;7.29;84.07715;101375.3;;;;-78
2022/11/04 20:00:36;;;;;;;4.6;1.5;;;;;;;;;;;;;-78
2022/11/04 20:01:55;;;;;;;;;;;;;;;7.38;83.71094;101373.8;;;;-77
2022/11/04 20:06:51;;;;;;;;;;;;;;;7.46;83.73828;101380.7;;;;-79
2022/11/04 20:16:52;;;;;;;;;;;;;;;7.48;83.71973;101394.9;;;;-78
2022/11/04 20:21:52;;;;;;;;;;;;;;;7.48;83.4873;101405.1;;;;-79
2022/11/04 20:26:52;;;;;;;;;;;;;;;7.44;83.95215;101406.7;;;;-79
2022/11/04 20:30:38;;;;;;;2.8;1.1;;;;;;;;;;;;;-78
2022/11/04 20:31:53;;;;;;;;;;;;;;;7.42;83.53125;101411.9;;;;-79
2022/11/04 20:36:51;;;;;;;;;;;;;;;7.45;83.45996;101421.1;;;;-78
2022/11/04 20:41:52;;;;;;;;;;;;;;;7.44;83.64453;101432;;;;-77
2022/11/04 20:46:51;;;;;;;;;;;;;;;7.45;83.60254;101449.7;;;;-78
2022/11/04 20:51:52;;;;;;;;;;;;;;;7.48;83.53125;101458.1;;;;-77
2022/11/04 20:56:52;;;;;;;;;;;;;;;7.49;83.75391;101462.5;;;;-77
2022/11/04 21:00:39;;;;;;;4.7;1.4;;;;;;;;;;;;;-77
2022/11/04 21:01:52;;;;;;;;;;;;;;;7.53;83.75;101464.4;;;;-79
2022/11/04 21:06:55;;;;;;;;;;;;;;;7.6;83.48828;101456.3;;;;-73
2022/11/04 21:11:52;;;;;;;;;;;;;;;7.64;83.48535;101467.8;;;;-73
2022/11/04 21:16:54;;;;;;;;;;;;;;;7.63;83.80273;101471.9;;;;-72
2022/11/04 21:21:52;;;;;;;;;;;;;;;7.59;83.56445;101473.4;;;;-79
2022/11/04 21:26:52;;;;;;;;;;;;;;;7.54;83.3457;101479;;;;-79
2022/11/04 21:30:37;;;;;;;3.5;1.2;;;;;;;;;;;;;-78
2022/11/04 21:31:52;;;;;;;;;;;;;;;7.45;83.60254;101489.4;;;;-78
2022/11/04 21:36:54;;;;;;;;;;;;;;;7.4;83.31836;101499;;;;-78
2022/11/04 21:41:51;;;;;;;;;;;;;;;7.38;83.51172;101503.7;;;;-77
2022/11/04 21:46:52;;;;;;;;;;;;;;;7.27;83.63379;101515.1;;;;-77
2022/11/04 21:51:51;;;;;;;;;;;;;;;7.25;83.62988;101520.6;;;;-78
2022/11/04 21:56:53;;;;;;;;;;;;;;;7.13;83.49805;101527.4;;;;-78
2022/11/04 22:00:37;;;;;;;3.3;1.1;;;;;;;;;;;;;-79
2022/11/04 22:01:52;;;;;;;;;;;;;;;7.08;83.4209;101529.5;;;;-78
2022/11/04 22:06:51;;;;;;;;;;;;;;;7.05;83.35059;101523.6;;;;-78
2022/11/04 22:11:52;;;;;;;;;;;;;;;6.99;83.40527;101522.9;;;;-77
2022/11/04 22:16:51;;;;;;;;;;;;;;;6.94;83.87695;101530.1;;;;-77
2022/11/04 22:21:52;;;;;;;;;;;;;;;6.9;83.4082;101524.8;;;;-77
2022/11/04 22:26:52;;;;;;;;;;;;;;;6.88;83.39551;101531.4;;;;-77
2022/11/04 22:30:37;;;;;;;4.8;1.5;;;;;;;;;;;;;-77
2022/11/04 22:31:51;;;;;;;;;;;;;;;6.84;83.69336;101525.7;;;;-77
2022/11/04 22:36:52;;;;;;;;;;;;;;;6.82;83.66797;101523.9;;;;-77
2022/11/04 22:41:52;;;;;;;;;;;;;;;6.77;83.62695;101527.2;;;;-77
2022/11/04 22:46:52;;;;;;;;;;;;;;;6.73;83.56348;101523.3;;;;-78
2022/11/04 22:51:51;;;;;;;;;;;;;;;6.7;83.31543;101515.7;;;;-78
2022/11/04 22:56:51;;;;;;;;;;;;;;;6.64;83.49121;101525.6;;;;-76
2022/11/04 23:00:37;;;;;;;3.1;1.5;;;;;;;;;;;;;-76
2022/11/04 23:01:52;;;;;;;;;;;;;;;6.61;83.57324;101536.5;;;;-77
2022/11/04 23:06:51;;;;;;;;;;;;;;;6.57;83.41113;101545.5;;;;-77
2022/11/04 23:26:52;;;;;;;;;;;;;;;6.36;83.61133;101531.3;;;;-77
2022/11/04 23:30:38;;;;;;;5;2;;;;;;;;;;;;;-76
2022/11/04 23:31:51;;;;;;;;;;;;;;;6.36;83.56836;101526.3;;;;-77
